sensor_id;sensor_type;location;lat;lon;timestamp;temperature;humidity
25280;DHT22;13225;47.804;12.116;2023-09-12T00:01:07;17.50;99.90
25280;DHT22;13225;47.804;12.116;2023-09-12T00:03:34;17.60;99.90
25280;DHT22;13225;47.804;12.116;2023-09-12T00:06:01;17.50;99.90
25280;DHT22;13225;47.804;12.116;2023-09-12T00:08:28;17.60;99.90
25280;DHT22;13225;47.804;12.116;2023-09-12T00:11:08;17.60;99.90
25280;DHT22;13225;47.804;12.116;2023-09-12T00:13:41;17.60;99.90
25280;DHT22;13225;47.804;12.116;2023-09-12T00:16:07;17.70;99.90
25280;DHT22;13225;47.804;12.116;2023-09-12T00:18:40;17.70;99.90
25280;DHT22;13225;47.804;12.116;2023-09-12T00:21:07;17.70;99.90
25280;DHT22;13225;47.804;12.116;2023-09-12T00:23:33;17.70;99.90
25280;DHT22;13225;47.804;12.116;2023-09-12T00:26:05;17.60;99.90
25280;DHT22;13225;47.804;12.116;2023-09-12T00:28:37;17.60;99.90
25280;DHT22;13225;47.804;12.116;2023-09-12T00:31:07;17.50;99.90
25280;DHT22;13225;47.804;12.116;2023-09-12T00:33:46;17.40;99.90
25280;DHT22;13225;47.804;12.116;2023-09-12T00:36:18;17.30;99.90
25280;DHT22;13225;47.804;12.116;2023-09-12T00:38:50;17.10;99.90
25280;DHT22;13225;47.804;12.116;2023-09-12T00:41:23;17.00;99.90
25280;DHT22;13225;47.804;12.116;2023-09-12T00:43:49;16.90;99.90
25280;DHT22;13225;47.804;12.116;2023-09-12T00:46:19;16.80;99.90
25280;DHT22;13225;47.804;12.116;2023-09-12T00:49:00;16.80;99.90
25280;DHT22;13225;47.804;12.116;2023-09-12T00:51:31;16.80;99.90
25280;DHT22;13225;47.804;12.116;2023-09-12T00:54:00;17.00;99.90
25280;DHT22;13225;47.804;12.116;2023-09-12T00:56:26;17.10;99.90
25280;DHT22;13225;47.804;12.116;2023-09-12T00:58:56;17.10;99.90
25280;DHT22;13225;47.804;12.116;2023-09-12T01:01:23;17.20;99.90
25280;DHT22;13225;47.804;12.116;2023-09-12T01:03:55;17.10;99.90
25280;DHT22;13225;47.804;12.116;2023-09-12T01:06:26;17.20;99.90
25280;DHT22;13225;47.804;12.116;2023-09-12T01:08:54;17.10;99.90
25280;DHT22;13225;47.804;12.116;2023-09-12T01:11:27;17.20;99.90
25280;DHT22;13225;47.804;12.116;2023-09-12T01:13:54;17.10;99.90
25280;DHT22;13225;47.804;12.116;2023-09-12T01:16:22;17.10;99.90
25280;DHT22;13225;47.804;12.116;2023-09-12T01:18:48;17.20;99.90
25280;DHT22;13225;47.804;12.116;2023-09-12T01:29:21;17.20;99.90
25280;DHT22;13225;47.804;12.116;2023-09-12T01:31:47;17.30;99.90
25280;DHT22;13225;47.804;12.116;2023-09-12T01:34:14;17.30;99.90
25280;DHT22;13225;47.804;12.116;2023-09-12T01:36:40;17.30;99.90
25280;DHT22;13225;47.804;12.116;2023-09-12T01:39:08;17.40;99.90
25280;DHT22;13225;47.804;12.116;2023-09-12T01:41:49;17.40;99.90
25280;DHT22;13225;47.804;12.116;2023-09-12T01:44:25;17.40;99.90
25280;DHT22;13225;47.804;12.116;2023-09-12T01:47:03;17.40;99.90
25280;DHT22;13225;47.804;12.116;2023-09-12T01:49:30;17.30;99.90
25280;DHT22;13225;47.804;12.116;2023-09-12T01:51:57;17.30;99.90
25280;DHT22;13225;47.804;12.116;2023-09-12T01:54:25;17.30;99.90
25280;DHT22;13225;47.804;12.116;2023-09-12T01:56:55;17.40;99.90
25280;DHT22;13225;47.804;12.116;2023-09-12T01:59:23;17.40;99.90
25280;DHT22;13225;47.804;12.116;2023-09-12T02:01:52;17.40;99.90
25280;DHT22;13225;47.804;12.116;2023-09-12T02:04:18;17.40;99.90
25280;DHT22;13225;47.804;12.116;2023-09-12T02:06:44;17.40;99.90
25280;DHT22;13225;47.804;12.116;2023-09-12T02:09:10;17.40;99.90
25280;DHT22;13225;47.804;12.116;2023-09-12T02:11:35;17.40;99.90
25280;DHT22;13225;47.804;12.116;2023-09-12T02:14:01;17.30;99.90
25280;DHT22;13225;47.804;12.116;2023-09-12T02:16:41;17.20;99.90
25280;DHT22;13225;47.804;12.116;2023-09-12T02:19:10;17.20;99.90
25280;DHT22;13225;47.804;12.116;2023-09-12T02:21:36;17.20;99.90
25280;DHT22;13225;47.804;12.116;2023-09-12T02:24:06;17.30;99.90
25280;DHT22;13225;47.804;12.116;2023-09-12T02:26:31;17.40;99.90
25280;DHT22;13225;47.804;12.116;2023-09-12T02:29:04;17.50;99.90
25280;DHT22;13225;47.804;12.116;2023-09-12T02:31:38;17.60;99.90
25280;DHT22;13225;47.804;12.116;2023-09-12T02:34:07;17.50;99.90
25280;DHT22;13225;47.804;12.116;2023-09-12T02:36:33;17.50;99.90
25280;DHT22;13225;47.804;12.116;2023-09-12T02:38:58;17.40;99.90
25280;DHT22;13225;47.804;12.116;2023-09-12T02:41:24;17.20;99.90
25280;DHT22;13225;47.804;12.116;2023-09-12T02:43:52;17.10;99.90
25280;DHT22;13225;47.804;12.116;2023-09-12T02:46:21;17.00;99.90
25280;DHT22;13225;47.804;12.116;2023-09-12T02:48:47;16.90;99.90
25280;DHT22;13225;47.804;12.116;2023-09-12T02:51:15;16.90;99.90
25280;DHT22;13225;47.804;12.116;2023-09-12T02:53:50;16.80;99.90
25280;DHT22;13225;47.804;12.116;2023-09-12T02:56:16;16.80;99.90
25280;DHT22;13225;47.804;12.116;2023-09-12T02:58:48;16.80;99.90
25280;DHT22;13225;47.804;12.116;2023-09-12T03:01:15;16.70;99.90
25280;DHT22;13225;47.804;12.116;2023-09-12T03:03:59;16.70;99.90
25280;DHT22;13225;47.804;12.116;2023-09-12T03:06:25;16.60;99.90
25280;DHT22;13225;47.804;12.116;2023-09-12T03:08:54;16.50;99.90
25280;DHT22;13225;47.804;12.116;2023-09-12T03:11:20;16.50;99.90
25280;DHT22;13225;47.804;12.116;2023-09-12T03:13:51;16.50;99.90
25280;DHT22;13225;47.804;12.116;2023-09-12T03:16:20;16.70;99.90
25280;DHT22;13225;47.804;12.116;2023-09-12T03:19:01;16.70;99.90
25280;DHT22;13225;47.804;12.116;2023-09-12T03:21:31;16.70;99.90
25280;DHT22;13225;47.804;12.116;2023-09-12T03:24:03;16.70;99.90
25280;DHT22;13225;47.804;12.116;2023-09-12T03:26:28;16.70;99.90
25280;DHT22;13225;47.804;12.116;2023-09-12T03:28:54;16.70;99.90
25280;DHT22;13225;47.804;12.116;2023-09-12T03:31:22;16.70;99.90
25280;DHT22;13225;47.804;12.116;2023-09-12T03:33:48;16.80;99.90
25280;DHT22;13225;47.804;12.116;2023-09-12T03:36:19;16.70;99.90
25280;DHT22;13225;47.804;12.116;2023-09-12T03:38:47;16.80;99.90
25280;DHT22;13225;47.804;12.116;2023-09-12T03:41:13;16.80;99.90
25280;DHT22;13225;47.804;12.116;2023-09-12T03:43:42;16.80;99.90
25280;DHT22;13225;47.804;12.116;2023-09-12T03:46:17;16.70;99.90
25280;DHT22;13225;47.804;12.116;2023-09-12T03:48:43;16.70;99.90
25280;DHT22;13225;47.804;12.116;2023-09-12T03:51:23;16.80;99.90
25280;DHT22;13225;47.804;12.116;2023-09-12T03:53:54;16.70;99.90
25280;DHT22;13225;47.804;12.116;2023-09-12T03:56:23;16.80;99.90
25280;DHT22;13225;47.804;12.116;2023-09-12T03:58:52;16.80;99.90
25280;DHT22;13225;47.804;12.116;2023-09-12T04:01:24;16.90;99.90
25280;DHT22;13225;47.804;12.116;2023-09-12T04:04:03;17.00;99.90
25280;DHT22;13225;47.804;12.116;2023-09-12T04:06:32;17.00;99.90
25280;DHT22;13225;47.804;12.116;2023-09-12T04:09:13;17.00;99.90
25280;DHT22;13225;47.804;12.116;2023-09-12T04:11:45;17.00;99.90
25280;DHT22;13225;47.804;12.116;2023-09-12T04:14:14;17.10;99.90
25280;DHT22;13225;47.804;12.116;2023-09-12T04:16:55;17.00;99.90
25280;DHT22;13225;47.804;12.116;2023-09-12T04:19:21;17.10;99.90
25280;DHT22;13225;47.804;12.116;2023-09-12T04:21:50;17.10;99.90
25280;DHT22;13225;47.804;12.116;2023-09-12T04:24:19;17.10;99.90
25280;DHT22;13225;47.804;12.116;2023-09-12T04:26:53;17.00;99.90
25280;DHT22;13225;47.804;12.116;2023-09-12T04:29:32;17.00;99.90
25280;DHT22;13225;47.804;12.116;2023-09-12T04:32:04;17.00;99.90
25280;DHT22;13225;47.804;12.116;2023-09-12T04:34:44;17.00;99.90
25280;DHT22;13225;47.804;12.116;2023-09-12T04:37:28;17.00;99.90
25280;DHT22;13225;47.804;12.116;2023-09-12T04:39:54;17.00;99.90
25280;DHT22;13225;47.804;12.116;2023-09-12T04:42:20;17.00;99.90
25280;DHT22;13225;47.804;12.116;2023-09-12T04:44:47;17.00;99.90
25280;DHT22;13225;47.804;12.116;2023-09-12T04:47:17;17.00;99.90
25280;DHT22;13225;47.804;12.116;2023-09-12T04:49:46;16.90;99.90
25280;DHT22;13225;47.804;12.116;2023-09-12T04:52:12;16.90;99.90
25280;DHT22;13225;47.804;12.116;2023-09-12T04:54:37;16.90;99.90
25280;DHT22;13225;47.804;12.116;2023-09-12T04:57:03;16.90;99.90
25280;DHT22;13225;47.804;12.116;2023-09-12T04:59:32;17.00;99.90
25280;DHT22;13225;47.804;12.116;2023-09-12T05:01:57;17.00;99.90
25280;DHT22;13225;47.804;12.116;2023-09-12T05:04:26;17.10;99.90
25280;DHT22;13225;47.804;12.116;2023-09-12T05:06:52;17.20;99.90
25280;DHT22;13225;47.804;12.116;2023-09-12T05:09:22;17.30;99.90
25280;DHT22;13225;47.804;12.116;2023-09-12T05:12:00;17.40;99.90
25280;DHT22;13225;47.804;12.116;2023-09-12T05:14:28;17.50;99.90
25280;DHT22;13225;47.804;12.116;2023-09-12T05:16:57;17.50;99.90
25280;DHT22;13225;47.804;12.116;2023-09-12T05:19:27;17.60;99.90
25280;DHT22;13225;47.804;12.116;2023-09-12T05:21:59;17.60;99.90
25280;DHT22;13225;47.804;12.116;2023-09-12T05:24:28;17.60;99.90
25280;DHT22;13225;47.804;12.116;2023-09-12T05:26:54;17.60;99.90
25280;DHT22;13225;47.804;12.116;2023-09-12T05:29:19;17.70;99.90
25280;DHT22;13225;47.804;12.116;2023-09-12T05:31:45;17.80;99.90
25280;DHT22;13225;47.804;12.116;2023-09-12T05:34:10;17.80;99.90
25280;DHT22;13225;47.804;12.116;2023-09-12T05:36:39;17.90;99.90
25280;DHT22;13225;47.804;12.116;2023-09-12T05:39:05;18.00;99.90
25280;DHT22;13225;47.804;12.116;2023-09-12T05:41:30;18.00;99.90
25280;DHT22;13225;47.804;12.116;2023-09-12T05:43:56;18.10;99.90
25280;DHT22;13225;47.804;12.116;2023-09-12T05:46:22;18.10;99.90
25280;DHT22;13225;47.804;12.116;2023-09-12T05:48:48;18.20;99.90
25280;DHT22;13225;47.804;12.116;2023-09-12T05:51:13;18.20;99.90
25280;DHT22;13225;47.804;12.116;2023-09-12T05:53:42;18.30;99.90
25280;DHT22;13225;47.804;12.116;2023-09-12T05:56:07;18.30;99.90
25280;DHT22;13225;47.804;12.116;2023-09-12T05:58:33;18.30;99.90
25280;DHT22;13225;47.804;12.116;2023-09-12T06:01:07;18.40;99.90
25280;DHT22;13225;47.804;12.116;2023-09-12T06:03:32;18.40;99.90
25280;DHT22;13225;47.804;12.116;2023-09-12T06:05:58;18.50;99.90
25280;DHT22;13225;47.804;12.116;2023-09-12T06:08:23;18.60;99.90
25280;DHT22;13225;47.804;12.116;2023-09-12T06:10:52;18.70;99.90
25280;DHT22;13225;47.804;12.116;2023-09-12T06:13:26;18.70;99.90
25280;DHT22;13225;47.804;12.116;2023-09-12T06:15:52;18.80;99.90
25280;DHT22;13225;47.804;12.116;2023-09-12T06:18:17;18.80;99.90
25280;DHT22;13225;47.804;12.116;2023-09-12T06:20:43;18.90;99.90
25280;DHT22;13225;47.804;12.116;2023-09-12T06:23:10;18.90;99.90
25280;DHT22;13225;47.804;12.116;2023-09-12T06:25:36;18.90;99.90
25280;DHT22;13225;47.804;12.116;2023-09-12T06:28:02;18.90;99.90
25280;DHT22;13225;47.804;12.116;2023-09-12T06:30:34;18.90;99.90
25280;DHT22;13225;47.804;12.116;2023-09-12T06:33:00;19.00;99.90
25280;DHT22;13225;47.804;12.116;2023-09-12T06:35:25;19.10;99.90
25280;DHT22;13225;47.804;12.116;2023-09-12T06:37:51;19.10;99.90
25280;DHT22;13225;47.804;12.116;2023-09-12T06:40:17;19.20;99.90
25280;DHT22;13225;47.804;12.116;2023-09-12T06:42:46;19.30;99.90
25280;DHT22;13225;47.804;12.116;2023-09-12T06:45:12;19.50;99.90
25280;DHT22;13225;47.804;12.116;2023-09-12T06:47:37;19.60;99.90
25280;DHT22;13225;47.804;12.116;2023-09-12T06:50:03;19.70;99.90
25280;DHT22;13225;47.804;12.116;2023-09-12T06:52:29;19.80;99.90
25280;DHT22;13225;47.804;12.116;2023-09-12T06:54:54;20.00;99.90
25280;DHT22;13225;47.804;12.116;2023-09-12T06:57:20;20.00;99.90
25280;DHT22;13225;47.804;12.116;2023-09-12T06:59:46;20.10;99.90
25280;DHT22;13225;47.804;12.116;2023-09-12T07:02:15;20.20;99.90
25280;DHT22;13225;47.804;12.116;2023-09-12T07:04:40;20.20;99.90
25280;DHT22;13225;47.804;12.116;2023-09-12T07:07:06;20.30;99.90
25280;DHT22;13225;47.804;12.116;2023-09-12T07:09:31;20.30;99.90
25280;DHT22;13225;47.804;12.116;2023-09-12T07:12:00;20.40;99.90
25280;DHT22;13225;47.804;12.116;2023-09-12T07:14:34;20.40;99.90
25280;DHT22;13225;47.804;12.116;2023-09-12T07:16:59;20.50;99.90
25280;DHT22;13225;47.804;12.116;2023-09-12T07:19:28;20.60;99.90
25280;DHT22;13225;47.804;12.116;2023-09-12T07:21:54;20.70;99.90
25280;DHT22;13225;47.804;12.116;2023-09-12T07:24:20;20.80;99.90
25280;DHT22;13225;47.804;12.116;2023-09-12T07:26:45;20.90;99.90
25280;DHT22;13225;47.804;12.116;2023-09-12T07:29:12;21.00;99.90
25280;DHT22;13225;47.804;12.116;2023-09-12T07:31:38;21.10;99.90
25280;DHT22;13225;47.804;12.116;2023-09-12T07:34:05;21.20;99.90
25280;DHT22;13225;47.804;12.116;2023-09-12T07:36:35;21.30;99.90
25280;DHT22;13225;47.804;12.116;2023-09-12T07:39:00;21.40;99.90
25280;DHT22;13225;47.804;12.116;2023-09-12T07:41:30;21.50;99.90
25280;DHT22;13225;47.804;12.116;2023-09-12T07:43:55;21.70;99.90
25280;DHT22;13225;47.804;12.116;2023-09-12T07:46:21;21.80;99.90
25280;DHT22;13225;47.804;12.116;2023-09-12T07:48:47;21.80;99.90
25280;DHT22;13225;47.804;12.116;2023-09-12T07:51:18;21.80;99.90
25280;DHT22;13225;47.804;12.116;2023-09-12T07:53:43;21.90;99.90
25280;DHT22;13225;47.804;12.116;2023-09-12T07:56:10;21.80;99.90
25280;DHT22;13225;47.804;12.116;2023-09-12T07:58:36;21.90;99.90
25280;DHT22;13225;47.804;12.116;2023-09-12T08:01:06;21.90;99.90
25280;DHT22;13225;47.804;12.116;2023-09-12T08:03:36;22.10;99.90
25280;DHT22;13225;47.804;12.116;2023-09-12T08:06:08;22.30;99.90
25280;DHT22;13225;47.804;12.116;2023-09-12T08:08:34;22.50;99.90
25280;DHT22;13225;47.804;12.116;2023-09-12T08:11:06;22.60;99.90
25280;DHT22;13225;47.804;12.116;2023-09-12T08:13:32;22.70;99.90
25280;DHT22;13225;47.804;12.116;2023-09-12T08:16:00;22.60;99.90
25280;DHT22;13225;47.804;12.116;2023-09-12T08:18:31;22.80;99.90
25280;DHT22;13225;47.804;12.116;2023-09-12T08:20:57;22.80;99.90
25280;DHT22;13225;47.804;12.116;2023-09-12T08:23:23;22.80;99.90
25280;DHT22;13225;47.804;12.116;2023-09-12T08:25:49;23.00;99.90
25280;DHT22;13225;47.804;12.116;2023-09-12T08:28:15;23.10;99.90
25280;DHT22;13225;47.804;12.116;2023-09-12T08:30:40;23.00;99.90
25280;DHT22;13225;47.804;12.116;2023-09-12T08:33:06;23.00;99.90
25280;DHT22;13225;47.804;12.116;2023-09-12T08:35:32;23.20;99.90
25280;DHT22;13225;47.804;12.116;2023-09-12T08:37:58;23.30;99.90
25280;DHT22;13225;47.804;12.116;2023-09-12T08:40:27;23.30;99.90
25280;DHT22;13225;47.804;12.116;2023-09-12T08:42:58;23.40;99.90
25280;DHT22;13225;47.804;12.116;2023-09-12T08:45:24;23.20;99.90
25280;DHT22;13225;47.804;12.116;2023-09-12T08:47:53;23.40;99.90
25280;DHT22;13225;47.804;12.116;2023-09-12T08:50:20;23.50;99.90
25280;DHT22;13225;47.804;12.116;2023-09-12T08:52:47;23.60;99.90
25280;DHT22;13225;47.804;12.116;2023-09-12T08:55:13;23.80;99.90
25280;DHT22;13225;47.804;12.116;2023-09-12T08:57:44;23.90;99.90
25280;DHT22;13225;47.804;12.116;2023-09-12T09:00:12;24.10;99.90
25280;DHT22;13225;47.804;12.116;2023-09-12T09:02:48;24.20;99.90
25280;DHT22;13225;47.804;12.116;2023-09-12T09:05:16;24.40;99.90
25280;DHT22;13225;47.804;12.116;2023-09-12T09:07:43;24.40;99.90
25280;DHT22;13225;47.804;12.116;2023-09-12T09:10:16;24.40;99.90
25280;DHT22;13225;47.804;12.116;2023-09-12T09:12:44;24.30;99.90
25280;DHT22;13225;47.804;12.116;2023-09-12T09:15:40;24.50;99.90
25280;DHT22;13225;47.804;12.116;2023-09-12T09:18:12;24.70;99.90
25280;DHT22;13225;47.804;12.116;2023-09-12T09:20:40;24.80;99.90
25280;DHT22;13225;47.804;12.116;2023-09-12T09:23:08;24.80;99.90
25280;DHT22;13225;47.804;12.116;2023-09-12T09:25:36;24.60;99.90
25280;DHT22;13225;47.804;12.116;2023-09-12T09:28:05;24.70;99.90
25280;DHT22;13225;47.804;12.116;2023-09-12T09:30:51;24.90;99.90
25280;DHT22;13225;47.804;12.116;2023-09-12T09:33:19;25.10;99.90
25280;DHT22;13225;47.804;12.116;2023-09-12T09:35:48;25.30;99.90
25280;DHT22;13225;47.804;12.116;2023-09-12T09:38:19;25.40;99.90
25280;DHT22;13225;47.804;12.116;2023-09-12T09:40:57;25.40;99.90
25280;DHT22;13225;47.804;12.116;2023-09-12T09:43:23;25.60;99.90
25280;DHT22;13225;47.804;12.116;2023-09-12T09:45:58;25.80;99.90
25280;DHT22;13225;47.804;12.116;2023-09-12T09:48:25;26.00;99.90
25280;DHT22;13225;47.804;12.116;2023-09-12T09:51:05;26.00;99.90
25280;DHT22;13225;47.804;12.116;2023-09-12T09:53:31;26.00;99.90
25280;DHT22;13225;47.804;12.116;2023-09-12T09:56:08;26.00;99.90
25280;DHT22;13225;47.804;12.116;2023-09-12T09:58:57;26.10;99.90
25280;DHT22;13225;47.804;12.116;2023-09-12T10:01:26;26.00;99.90
25280;DHT22;13225;47.804;12.116;2023-09-12T10:03:57;26.10;99.90
25280;DHT22;13225;47.804;12.116;2023-09-12T10:06:23;26.30;99.90
25280;DHT22;13225;47.804;12.116;2023-09-12T10:08:53;26.40;99.90
25280;DHT22;13225;47.804;12.116;2023-09-12T10:11:23;26.50;99.90
25280;DHT22;13225;47.804;12.116;2023-09-12T10:13:53;26.70;99.90
25280;DHT22;13225;47.804;12.116;2023-09-12T10:16:24;26.80;99.90
25280;DHT22;13225;47.804;12.116;2023-09-12T10:19:04;26.70;99.90
25280;DHT22;13225;47.804;12.116;2023-09-12T10:21:35;26.80;99.90
25280;DHT22;13225;47.804;12.116;2023-09-12T10:24:03;27.00;99.90
25280;DHT22;13225;47.804;12.116;2023-09-12T10:26:31;26.70;99.90
25280;DHT22;13225;47.804;12.116;2023-09-12T10:28:57;26.20;99.90
25280;DHT22;13225;47.804;12.116;2023-09-12T10:31:24;26.10;99.90
25280;DHT22;13225;47.804;12.116;2023-09-12T10:33:51;26.10;99.90
25280;DHT22;13225;47.804;12.116;2023-09-12T10:36:18;26.20;99.90
25280;DHT22;13225;47.804;12.116;2023-09-12T10:38:47;26.60;99.90
25280;DHT22;13225;47.804;12.116;2023-09-12T10:41:14;26.80;99.90
25280;DHT22;13225;47.804;12.116;2023-09-12T10:43:41;27.10;99.90
25280;DHT22;13225;47.804;12.116;2023-09-12T10:46:08;27.00;99.90
25280;DHT22;13225;47.804;12.116;2023-09-12T10:48:37;26.70;99.90
25280;DHT22;13225;47.804;12.116;2023-09-12T10:51:07;26.90;99.90
25280;DHT22;13225;47.804;12.116;2023-09-12T10:53:33;27.20;99.90
25280;DHT22;13225;47.804;12.116;2023-09-12T10:56:20;27.40;99.90
25280;DHT22;13225;47.804;12.116;2023-09-12T11:01:30;27.30;99.90
25280;DHT22;13225;47.804;12.116;2023-09-12T11:03:57;27.40;99.90
25280;DHT22;13225;47.804;12.116;2023-09-12T11:06:29;27.20;99.90
25280;DHT22;13225;47.804;12.116;2023-09-12T11:11:47;27.20;99.90
25280;DHT22;13225;47.804;12.116;2023-09-12T11:14:13;27.20;99.90
25280;DHT22;13225;47.804;12.116;2023-09-12T11:16:40;27.20;99.90
25280;DHT22;13225;47.804;12.116;2023-09-12T11:19:16;27.50;99.90
25280;DHT22;13225;47.804;12.116;2023-09-12T11:21:43;27.60;99.90
25280;DHT22;13225;47.804;12.116;2023-09-12T11:24:10;27.80;99.90
25280;DHT22;13225;47.804;12.116;2023-09-12T11:26:36;28.00;99.90
25280;DHT22;13225;47.804;12.116;2023-09-12T11:29:17;27.80;99.90
25280;DHT22;13225;47.804;12.116;2023-09-12T11:31:52;27.80;99.90
25280;DHT22;13225;47.804;12.116;2023-09-12T11:34:19;28.30;99.90
25280;DHT22;13225;47.804;12.116;2023-09-12T11:36:46;28.40;99.90
25280;DHT22;13225;47.804;12.116;2023-09-12T11:39:29;28.70;99.90
25280;DHT22;13225;47.804;12.116;2023-09-12T11:42:00;28.50;99.90
25280;DHT22;13225;47.804;12.116;2023-09-12T11:44:26;28.50;99.90
25280;DHT22;13225;47.804;12.116;2023-09-12T11:46:53;28.60;99.90
25280;DHT22;13225;47.804;12.116;2023-09-12T11:49:19;29.00;99.90
25280;DHT22;13225;47.804;12.116;2023-09-12T11:51:49;28.80;99.90
25280;DHT22;13225;47.804;12.116;2023-09-12T11:54:17;29.40;99.90
25280;DHT22;13225;47.804;12.116;2023-09-12T11:56:43;29.90;99.90
25280;DHT22;13225;47.804;12.116;2023-09-12T11:59:09;30.00;99.90
25280;DHT22;13225;47.804;12.116;2023-09-12T12:01:35;29.70;99.90
25280;DHT22;13225;47.804;12.116;2023-09-12T12:04:01;30.00;99.90
25280;DHT22;13225;47.804;12.116;2023-09-12T12:06:26;29.70;99.90
25280;DHT22;13225;47.804;12.116;2023-09-12T12:08:52;30.30;99.90
25280;DHT22;13225;47.804;12.116;2023-09-12T12:11:20;30.90;99.90
25280;DHT22;13225;47.804;12.116;2023-09-12T12:13:45;31.10;99.90
25280;DHT22;13225;47.804;12.116;2023-09-12T12:16:15;31.30;99.90
25280;DHT22;13225;47.804;12.116;2023-09-12T12:18:41;32.00;99.90
25280;DHT22;13225;47.804;12.116;2023-09-12T12:21:07;32.00;99.90
25280;DHT22;13225;47.804;12.116;2023-09-12T12:23:32;32.10;99.90
25280;DHT22;13225;47.804;12.116;2023-09-12T12:26:05;32.00;99.90
25280;DHT22;13225;47.804;12.116;2023-09-12T12:28:31;31.70;99.90
25280;DHT22;13225;47.804;12.116;2023-09-12T12:30:57;31.20;99.90
25280;DHT22;13225;47.804;12.116;2023-09-12T12:33:22;30.80;99.90
25280;DHT22;13225;47.804;12.116;2023-09-12T12:35:48;30.40;99.90
25280;DHT22;13225;47.804;12.116;2023-09-12T12:38:15;30.20;99.90
25280;DHT22;13225;47.804;12.116;2023-09-12T12:40:41;30.00;99.90
25280;DHT22;13225;47.804;12.116;2023-09-12T12:43:16;30.20;99.90
25280;DHT22;13225;47.804;12.116;2023-09-12T12:45:52;30.40;99.90
25280;DHT22;13225;47.804;12.116;2023-09-12T12:48:30;30.80;99.90
25280;DHT22;13225;47.804;12.116;2023-09-12T12:50:56;31.00;99.90
25280;DHT22;13225;47.804;12.116;2023-09-12T12:53:41;31.20;99.90
25280;DHT22;13225;47.804;12.116;2023-09-12T12:56:07;31.50;99.90
25280;DHT22;13225;47.804;12.116;2023-09-12T12:58:33;32.00;99.90
25280;DHT22;13225;47.804;12.116;2023-09-12T13:01:00;32.20;99.90
25280;DHT22;13225;47.804;12.116;2023-09-12T13:03:26;32.10;99.90
25280;DHT22;13225;47.804;12.116;2023-09-12T13:05:51;32.20;99.90
25280;DHT22;13225;47.804;12.116;2023-09-12T13:08:17;31.90;99.90
25280;DHT22;13225;47.804;12.116;2023-09-12T13:10:43;31.80;99.90
25280;DHT22;13225;47.804;12.116;2023-09-12T13:13:09;31.90;99.90
25280;DHT22;13225;47.804;12.116;2023-09-12T13:15:35;32.00;99.90
25280;DHT22;13225;47.804;12.116;2023-09-12T13:18:00;32.50;99.90
25280;DHT22;13225;47.804;12.116;2023-09-12T13:20:26;32.80;99.90
25280;DHT22;13225;47.804;12.116;2023-09-12T13:22:52;32.90;99.90
25280;DHT22;13225;47.804;12.116;2023-09-12T13:25:17;33.10;99.90
25280;DHT22;13225;47.804;12.116;2023-09-12T13:27:43;33.10;99.90
25280;DHT22;13225;47.804;12.116;2023-09-12T13:30:09;33.40;99.90
25280;DHT22;13225;47.804;12.116;2023-09-12T13:32:36;33.40;99.90
25280;DHT22;13225;47.804;12.116;2023-09-12T13:35:02;33.20;99.90
25280;DHT22;13225;47.804;12.116;2023-09-12T13:37:28;33.20;99.90
25280;DHT22;13225;47.804;12.116;2023-09-12T13:39:55;33.10;99.90
25280;DHT22;13225;47.804;12.116;2023-09-12T13:42:20;32.80;99.90
25280;DHT22;13225;47.804;12.116;2023-09-12T13:44:49;33.10;99.90
25280;DHT22;13225;47.804;12.116;2023-09-12T13:47:16;32.80;99.90
25280;DHT22;13225;47.804;12.116;2023-09-12T13:49:47;32.40;99.90
25280;DHT22;13225;47.804;12.116;2023-09-12T13:52:13;32.50;99.90
25280;DHT22;13225;47.804;12.116;2023-09-12T13:54:40;32.60;99.90
25280;DHT22;13225;47.804;12.116;2023-09-12T13:57:05;32.80;99.90
25280;DHT22;13225;47.804;12.116;2023-09-12T13:59:31;33.20;99.90
25280;DHT22;13225;47.804;12.116;2023-09-12T14:01:57;33.10;99.90
25280;DHT22;13225;47.804;12.116;2023-09-12T14:04:22;33.20;99.90
25280;DHT22;13225;47.804;12.116;2023-09-12T14:06:49;33.00;99.90
25280;DHT22;13225;47.804;12.116;2023-09-12T14:09:14;33.10;99.90
25280;DHT22;13225;47.804;12.116;2023-09-12T14:11:41;33.40;99.90
25280;DHT22;13225;47.804;12.116;2023-09-12T14:14:07;34.00;98.80
25280;DHT22;13225;47.804;12.116;2023-09-12T14:16:32;34.20;98.30
25280;DHT22;13225;47.804;12.116;2023-09-12T14:18:58;34.10;97.00
25280;DHT22;13225;47.804;12.116;2023-09-12T14:21:24;33.90;97.30
25280;DHT22;13225;47.804;12.116;2023-09-12T14:23:50;33.60;97.10
25280;DHT22;13225;47.804;12.116;2023-09-12T14:26:16;33.30;97.00
25280;DHT22;13225;47.804;12.116;2023-09-12T14:28:41;33.10;97.40
25280;DHT22;13225;47.804;12.116;2023-09-12T14:31:07;33.30;98.50
25280;DHT22;13225;47.804;12.116;2023-09-12T14:33:39;33.50;97.50
25280;DHT22;13225;47.804;12.116;2023-09-12T14:36:07;33.60;97.40
25280;DHT22;13225;47.804;12.116;2023-09-12T14:38:33;33.90;96.60
25280;DHT22;13225;47.804;12.116;2023-09-12T14:40:59;34.20;97.00
25280;DHT22;13225;47.804;12.116;2023-09-12T14:43:24;34.30;96.40
25280;DHT22;13225;47.804;12.116;2023-09-12T14:45:50;33.90;96.40
25280;DHT22;13225;47.804;12.116;2023-09-12T14:48:16;33.90;96.40
25280;DHT22;13225;47.804;12.116;2023-09-12T14:50:42;34.10;96.80
25280;DHT22;13225;47.804;12.116;2023-09-12T14:53:07;34.10;95.90
25280;DHT22;13225;47.804;12.116;2023-09-12T14:55:33;34.10;96.20
25280;DHT22;13225;47.804;12.116;2023-09-12T14:57:58;33.80;96.00
25280;DHT22;13225;47.804;12.116;2023-09-12T15:00:24;33.80;94.80
25280;DHT22;13225;47.804;12.116;2023-09-12T15:02:50;33.50;95.70
25280;DHT22;13225;47.804;12.116;2023-09-12T15:05:16;33.60;95.60
25280;DHT22;13225;47.804;12.116;2023-09-12T15:07:42;33.60;96.40
25280;DHT22;13225;47.804;12.116;2023-09-12T15:10:08;33.40;97.30
25280;DHT22;13225;47.804;12.116;2023-09-12T15:12:34;33.20;97.90
25280;DHT22;13225;47.804;12.116;2023-09-12T15:14:59;33.10;98.20
25280;DHT22;13225;47.804;12.116;2023-09-12T15:17:25;33.10;98.20
25280;DHT22;13225;47.804;12.116;2023-09-12T15:19:51;33.20;98.00
25280;DHT22;13225;47.804;12.116;2023-09-12T15:22:16;33.20;98.40
25280;DHT22;13225;47.804;12.116;2023-09-12T15:24:42;33.10;97.90
25280;DHT22;13225;47.804;12.116;2023-09-12T15:27:10;33.10;98.10
25280;DHT22;13225;47.804;12.116;2023-09-12T15:29:36;32.90;98.30
25280;DHT22;13225;47.804;12.116;2023-09-12T15:32:02;32.50;98.90
25280;DHT22;13225;47.804;12.116;2023-09-12T15:34:28;32.50;99.30
25280;DHT22;13225;47.804;12.116;2023-09-12T15:37:12;32.40;99.30